Time;durP1;ratioP1;P1;durP2;ratioP2;P2;SDS_P1;SDS_P2;PMS_P1;PMS_P2;Temp;Humidity;BMP_temperature;BMP_pressure;BME280_temperature;BME280_humidity;BME280_pressure;Samples;Min_cycle;Max_cycle;Signal;HPM_P1;HPM_P2
2023/10/10 00:00:23;;;;;;;;;;;;;;;18.08;nan;101921.09;5059318;28;19916;-91
2023/10/10 00:02:18;;;;;;;;;;;;;;;18.08;nan;101915.66;5061208;28;19921;-91
2023/10/10 00:04:44;;;;;;;;;;;;;;;18.07;nan;101908.59;5064256;28;19956;-90
2023/10/10 00:07:11;;;;;;;;;;;;;;;18.06;nan;101912.41;5065547;28;19920;-90
2023/10/10 00:09:37;;;;;;;;;;;;;;;18.05;nan;101908.88;5062174;28;20384;-90
2023/10/10 00:12:02;;;;;;;;;;;;;;;18.04;nan;101917.28;5062720;28;19916;-91
2023/10/10 00:14:29;;;;;;;;;;;;;;;18.06;nan;101910.50;5059168;28;19920;-90
2023/10/10 00:16:55;;;;;;;;;;;;;;;18.07;nan;101906.72;5059350;28;19932;-91
2023/10/10 00:21:52;;;;;;;;;;;;;;;18.07;nan;101903.19;5061114;28;20376;-91
2023/10/10 00:24:20;;;;;;;;;;;;;;;18.07;nan;101904.00;5059947;28;20327;-92
2023/10/10 00:26:47;;;;;;;;;;;;;;;18.04;nan;101909.16;5059922;28;19925;-91
2023/10/10 00:29:13;;;;;;;;;;;;;;;18.05;nan;101908.06;5058490;28;19928;-91
2023/10/10 00:31:38;;;;;;;;;;;;;;;18.07;nan;101912.13;5060727;28;19920;-90
2023/10/10 00:34:07;;;;;;;;;;;;;;;18.09;nan;101906.44;5056882;28;19924;-91
2023/10/10 00:36:35;;;;;;;;;;;;;;;18.08;nan;101910.25;5059972;28;19920;-90
2023/10/10 00:41:50;;;;;;;;;;;;;;;18.10;nan;101905.34;5059474;28;19916;-91
2023/10/10 00:44:17;;;;;;;;;;;;;;;18.12;nan;101904.00;5056306;28;19920;-90
2023/10/10 00:46:43;;;;;;;;;;;;;;;18.15;nan;101904.56;5059548;28;19928;-90
2023/10/10 00:49:10;;;;;;;;;;;;;;;18.14;nan;101906.47;5060488;28;20491;-91
2023/10/10 00:51:38;;;;;;;;;;;;;;;18.12;nan;101916.75;5056465;28;20088;-90
2023/10/10 00:57:00;;;;;;;;;;;;;;;18.10;nan;101899.94;5055213;28;19927;-90
2023/10/10 00:59:54;;;;;;;;;;;;;;;18.13;nan;101899.38;5056322;28;19927;-90
2023/10/10 01:02:16;;;;;;;;;;;;;;;18.15;nan;101897.25;5056840;28;19924;-90
2023/10/10 01:04:49;;;;;;;;;;;;;;;18.14;nan;101890.19;5059814;28;19923;-90
2023/10/10 01:07:21;;;;;;;;;;;;;;;18.17;nan;101903.22;5060857;28;19928;-91
2023/10/10 01:09:57;;;;;;;;;;;;;;;18.18;nan;101896.69;5058563;28;19944;-90
2023/10/10 01:12:26;;;;;;;;;;;;;;;18.17;nan;101902.41;5059475;28;19920;-92
2023/10/10 01:14:57;;;;;;;;;;;;;;;18.17;nan;101900.50;5060255;28;19917;-91
2023/10/10 01:17:29;;;;;;;;;;;;;;;18.15;nan;101899.97;5056746;28;19931;-91
2023/10/10 01:19:57;;;;;;;;;;;;;;;18.12;nan;101895.03;5057132;28;19931;-91
2023/10/10 01:22:35;;;;;;;;;;;;;;;18.09;nan;101893.69;5058564;28;20380;-91
2023/10/10 01:25:05;;;;;;;;;;;;;;;18.06;nan;101894.25;5060303;28;19931;-91
2023/10/10 01:27:31;;;;;;;;;;;;;;;18.07;nan;101895.88;5061421;28;19978;-91
2023/10/10 01:30:17;;;;;;;;;;;;;;;18.08;nan;101896.69;5055584;28;20248;-91
2023/10/10 01:32:42;;;;;;;;;;;;;;;18.07;nan;101890.44;5059510;28;19960;-91
2023/10/10 01:35:16;;;;;;;;;;;;;;;18.09;nan;101893.69;5060012;28;20005;-91
2023/10/10 01:37:42;;;;;;;;;;;;;;;18.12;nan;101892.34;5062166;28;19960;-92
2023/10/10 01:40:16;;;;;;;;;;;;;;;18.13;nan;101891.25;5060692;28;20121;-90
2023/10/10 01:42:59;;;;;;;;;;;;;;;18.08;nan;101892.06;5056991;28;21129;-90
2023/10/10 01:45:27;;;;;;;;;;;;;;;18.04;nan;101895.59;5056296;28;19931;-92
2023/10/10 01:48:02;;;;;;;;;;;;;;;18.01;nan;101893.44;5055118;28;19936;-92
2023/10/10 01:50:30;;;;;;;;;;;;;;;18.01;nan;101901.56;5056545;28;20484;-91
2023/10/10 01:52:56;;;;;;;;;;;;;;;17.99;nan;101903.75;5059561;28;19932;-90
2023/10/10 01:55:24;;;;;;;;;;;;;;;17.99;nan;101903.75;5055959;28;19928;-91
2023/10/10 01:57:49;;;;;;;;;;;;;;;18.00;nan;101906.19;5058537;28;19920;-92
2023/10/10 02:00:27;;;;;;;;;;;;;;;18.01;nan;101907.00;5058803;28;19920;-92
2023/10/10 02:02:53;;;;;;;;;;;;;;;18.01;nan;101896.13;5059225;28;19924;-92
2023/10/10 02:08:09;;;;;;;;;;;;;;;17.96;nan;101888.81;5059310;28;19947;-91
2023/10/10 02:10:36;;;;;;;;;;;;;;;17.96;nan;101893.44;5054934;28;19920;-92
2023/10/10 02:13:06;;;;;;;;;;;;;;;17.93;nan;101881.19;5076095;28;19928;-91
2023/10/10 02:15:36;;;;;;;;;;;;;;;17.91;nan;101887.97;5056385;28;19974;-91
2023/10/10 02:18:04;;;;;;;;;;;;;;;17.89;nan;101874.69;5060946;28;19988;-91
2023/10/10 02:20:49;;;;;;;;;;;;;;;17.88;nan;101867.66;5067509;28;19978;-91
2023/10/10 02:25:49;;;;;;;;;;;;;;;17.90;nan;101870.91;5063800;28;19947;-91
2023/10/10 02:30:45;;;;;;;;;;;;;;;17.92;nan;101870.63;5065725;28;19935;-91
2023/10/10 02:33:30;;;;;;;;;;;;;;;17.95;nan;101856.53;5061171;28;19943;-91
2023/10/10 02:35:59;;;;;;;;;;;;;;;17.90;nan;101865.47;5066272;28;19956;-92
2023/10/10 02:38:31;;;;;;;;;;;;;;;17.85;nan;101861.97;5065749;28;19920;-92
2023/10/10 02:41:15;;;;;;;;;;;;;;;17.82;nan;101863.31;5064045;28;19921;-91
2023/10/10 02:43:54;;;;;;;;;;;;;;;17.81;nan;101875.25;5061205;28;19955;-92
2023/10/10 02:46:20;;;;;;;;;;;;;;;17.78;nan;101864.94;5059417;28;19932;-91
2023/10/10 02:48:53;;;;;;;;;;;;;;;17.81;nan;101865.22;5061843;28;20077;-92
2023/10/10 02:51:19;;;;;;;;;;;;;;;17.82;nan;101866.03;5065451;28;19920;-92
2023/10/10 02:53:47;;;;;;;;;;;;;;;17.84;nan;101865.75;5061281;28;20093;-91
2023/10/10 02:56:18;;;;;;;;;;;;;;;17.86;nan;101869.00;5066774;28;19931;-92
2023/10/10 02:58:45;;;;;;;;;;;;;;;17.80;nan;101866.28;5059712;28;19931;-91
2023/10/10 03:01:25;;;;;;;;;;;;;;;17.78;nan;101868.47;5059789;28;19920;-91
2023/10/10 03:03:54;;;;;;;;;;;;;;;17.77;nan;101868.72;5061925;28;19947;-92
2023/10/10 03:06:28;;;;;;;;;;;;;;;17.76;nan;101867.91;5063425;28;19921;-91
2023/10/10 03:09:06;;;;;;;;;;;;;;;17.76;nan;101865.19;5063764;28;19917;-92
2023/10/10 03:11:35;;;;;;;;;;;;;;;17.80;nan;101863.59;5056908;28;19924;-90
2023/10/10 03:14:07;;;;;;;;;;;;;;;17.81;nan;101857.09;5063534;28;19924;-89
2023/10/10 03:16:43;;;;;;;;;;;;;;;17.84;nan;101858.44;5060292;28;20038;-92
2023/10/10 03:29:20;;;;;;;;;;;;;;;17.88;nan;101861.41;5063609;28;19936;-91
2023/10/10 03:31:48;;;;;;;;;;;;;;;17.89;nan;101866.56;5061144;28;20056;-93
2023/10/10 03:34:30;;;;;;;;;;;;;;;17.88;nan;101858.69;5058331;28;19916;-91
2023/10/10 03:38:04;;;;;;;;;;;;;;;17.88;nan;101864.13;5059383;28;19924;-92
2023/10/10 03:39:53;;;;;;;;;;;;;;;17.85;nan;101868.19;5061442;28;19989;-91
2023/10/10 05:24:20;;;;;;;;;;;;;;;17.86;nan;101863.59;5060067;28;20330;-91
2023/10/10 05:26:46;;;;;;;;;;;;;;;17.85;nan;101867.38;5055466;28;20099;-92
2023/10/10 05:29:19;;;;;;;;;;;;;;;17.85;nan;101864.66;5064594;28;20020;-91
2023/10/10 05:31:44;;;;;;;;;;;;;;;17.86;nan;101850.03;5055811;28;19920;-92
2023/10/10 05:34:10;;;;;;;;;;;;;;;17.88;nan;101853.28;5054938;28;19924;-92
2023/10/10 05:36:36;;;;;;;;;;;;;;;17.89;nan;101852.19;5061825;28;20557;-91
2023/10/10 05:39:01;;;;;;;;;;;;;;;17.84;nan;101852.19;5061650;28;20003;-92
2023/10/10 05:41:28;;;;;;;;;;;;;;;17.80;nan;101862.78;5063187;28;19935;-93
2023/10/10 05:43:56;;;;;;;;;;;;;;;17.76;nan;101862.47;5058390;28;19952;-93
2023/10/10 05:46:21;;;;;;;;;;;;;;;17.78;nan;101865.75;5061703;28;19932;-94
2023/10/10 05:48:47;;;;;;;;;;;;;;;17.83;nan;101866.84;5061576;28;19920;-93
2023/10/10 05:51:13;;;;;;;;;;;;;;;17.87;nan;101867.91;5059474;28;19941;-93
2023/10/10 05:53:39;;;;;;;;;;;;;;;17.90;nan;101864.66;5059897;28;19931;-92
2023/10/10 05:56:15;;;;;;;;;;;;;;;17.94;nan;101863.03;5061645;28;19916;-94
2023/10/10 05:58:42;;;;;;;;;;;;;;;17.94;nan;101861.13;5061245;28;20377;-93
2023/10/10 06:01:09;;;;;;;;;;;;;;;17.92;nan;101870.63;5057724;28;19999;-93
2023/10/10 06:03:35;;;;;;;;;;;;;;;17.91;nan;101869.00;5059852;28;19971;-94
2023/10/10 06:06:03;;;;;;;;;;;;;;;17.87;nan;101862.50;5062281;28;19933;-93
2023/10/10 06:08:31;;;;;;;;;;;;;;;17.88;nan;101869.53;5059641;28;19975;-91
2023/10/10 06:10:56;;;;;;;;;;;;;;;17.87;nan;101868.72;5063585;28;19927;-92
2023/10/10 06:13:22;;;;;;;;;;;;;;;17.91;nan;101872.53;5070335;28;19917;-94
2023/10/10 06:15:50;;;;;;;;;;;;;;;17.95;nan;101870.09;5071296;28;19962;-92
2023/10/10 06:18:17;;;;;;;;;;;;;;;17.94;nan;101869.28;5065228;28;19960;-93
2023/10/10 06:20:43;;;;;;;;;;;;;;;17.93;nan;101883.91;5056522;28;19924;-93
2023/10/10 06:23:11;;;;;;;;;;;;;;;17.93;nan;101878.50;5058145;28;19930;-93
2023/10/10 06:25:37;;;;;;;;;;;;;;;17.96;nan;101875.25;5056561;28;19964;-92
2023/10/10 06:28:05;;;;;;;;;;;;;;;17.99;nan;101876.63;5058402;28;19974;-92
2023/10/10 06:30:31;;;;;;;;;;;;;;;17.98;nan;101885.84;5056622;28;20376;-92
2023/10/10 06:33:08;;;;;;;;;;;;;;;17.96;nan;101888.00;5058669;28;19927;-91
2023/10/10 06:35:37;;;;;;;;;;;;;;;17.97;nan;101892.34;5055224;28;19928;-91
2023/10/10 06:38:03;;;;;;;;;;;;;;;17.93;nan;101899.38;5062423;28;20349;-91
2023/10/10 06:40:29;;;;;;;;;;;;;;;17.90;nan;101903.44;5061333;28;20011;-92
2023/10/10 06:42:58;;;;;;;;;;;;;;;17.87;nan;101908.59;5055227;28;19934;-92
2023/10/10 06:45:25;;;;;;;;;;;;;;;17.89;nan;101909.94;5061996;28;19916;-91
2023/10/10 06:47:54;;;;;;;;;;;;;;;17.94;nan;101918.06;5057914;28;19986;-89
2023/10/10 06:50:22;;;;;;;;;;;;;;;17.98;nan;101912.97;5057595;28;19967;-91
2023/10/10 06:52:52;;;;;;;;;;;;;;;17.99;nan;101918.09;5057488;28;19916;-91
2023/10/10 06:55:21;;;;;;;;;;;;;;;17.96;nan;101917.84;5057726;28;20383;-91
2023/10/10 06:57:57;;;;;;;;;;;;;;;17.97;nan;101919.47;5056529;28;19921;-92
2023/10/10 07:01:04;;;;;;;;;;;;;;;17.98;nan;101923.81;5056753;28;19916;-91
2023/10/10 07:03:19;;;;;;;;;;;;;;;18.01;nan;101934.91;5066995;28;20013;-91
2023/10/10 07:05:45;;;;;;;;;;;;;;;18.03;nan;101931.94;5064465;28;19966;-91
2023/10/10 07:08:18;;;;;;;;;;;;;;;18.07;nan;101930.31;5059280;28;19974;-91
2023/10/10 07:10:45;;;;;;;;;;;;;;;18.09;nan;101931.66;5062993;28;19924;-90
2023/10/10 07:13:14;;;;;;;;;;;;;;;18.14;nan;101939.00;5061352;28;19920;-91
2023/10/10 07:15:42;;;;;;;;;;;;;;;18.15;nan;101939.81;5064230;28;20459;-91
2023/10/10 07:18:14;;;;;;;;;;;;;;;18.17;nan;101934.94;5063844;28;19921;-91
2023/10/10 07:23:24;;;;;;;;;;;;;;;18.24;nan;101902.94;5060075;28;19954;-91
2023/10/10 07:25:59;;;;;;;;;;;;;;;18.28;nan;101893.97;5065388;28;19916;-91
2023/10/10 07:28:26;;;;;;;;;;;;;;;18.25;nan;101915.41;5056513;28;19921;-91
2023/10/10 07:30:52;;;;;;;;;;;;;;;18.26;nan;101917.84;5058492;28;20410;-92
2023/10/10 07:33:22;;;;;;;;;;;;;;;18.30;nan;101918.91;5057201;28;19967;-92
2023/10/10 07:35:53;;;;;;;;;;;;;;;18.33;nan;101909.44;5056471;28;20201;-92
2023/10/10 07:38:20;;;;;;;;;;;;;;;18.39;nan;101914.59;5056974;28;19943;-91
2023/10/10 07:40:51;;;;;;;;;;;;;;;18.43;nan;101918.38;5059568;28;19927;-91
2023/10/10 07:43:17;;;;;;;;;;;;;;;18.47;nan;101925.97;5062385;28;20027;-92
2023/10/10 07:50:46;;;;;;;;;;;;;;;18.63;nan;101919.47;5065503;28;19917;-93
2023/10/10 07:53:12;;;;;;;;;;;;;;;18.65;nan;101925.44;5057528;28;20474;-93
2023/10/10 07:58:29;;;;;;;;;;;;;;;18.65;nan;101920.03;5052281;28;19947;-91
2023/10/10 08:01:08;;;;;;;;;;;;;;;18.69;nan;101918.41;5053987;28;20355;-91
2023/10/10 08:03:34;;;;;;;;;;;;;;;18.67;nan;101920.56;5062497;28;20423;-93
2023/10/10 08:05:59;;;;;;;;;;;;;;;18.69;nan;101919.22;5056729;28;19920;-93
2023/10/10 08:08:26;;;;;;;;;;;;;;;18.70;nan;101920.03;5066643;28;19920;-91
2023/10/10 08:10:51;;;;;;;;;;;;;;;18.70;nan;101915.41;5064903;28;19928;-92
2023/10/10 08:13:17;;;;;;;;;;;;;;;18.67;nan;101910.53;5052805;28;20423;-94
2023/10/10 08:15:56;;;;;;;;;;;;;;;18.61;nan;101911.59;5059603;28;19920;-95
2023/10/10 08:18:49;;;;;;;;;;;;;;;18.59;nan;101915.66;5063086;28;20015;-92
2023/10/10 08:21:15;;;;;;;;;;;;;;;18.45;nan;101909.16;5057868;28;19916;-93
2023/10/10 08:23:42;;;;;;;;;;;;;;;18.42;nan;101913.22;5054328;28;19923;-87
2023/10/10 08:26:26;;;;;;;;;;;;;;;18.45;nan;101911.88;5057273;28;19931;-91
2023/10/10 08:28:52;;;;;;;;;;;;;;;18.47;nan;101913.22;5054701;28;20241;-94
2023/10/10 08:31:18;;;;;;;;;;;;;;;18.46;nan;101903.44;5054504;28;20012;-91
2023/10/10 08:33:46;;;;;;;;;;;;;;;18.57;nan;101906.97;5053427;28;20014;-91
2023/10/10 08:36:12;;;;;;;;;;;;;;;18.58;nan;101905.91;5057706;28;20400;-92
2023/10/10 08:38:42;;;;;;;;;;;;;;;18.64;nan;101907.53;5063763;28;19920;-93
2023/10/10 08:41:08;;;;;;;;;;;;;;;18.67;nan;101902.41;5053049;28;20269;-92
2023/10/10 08:43:35;;;;;;;;;;;;;;;18.76;nan;101899.09;5058207;28;19921;-92
2023/10/10 08:46:04;;;;;;;;;;;;;;;18.82;nan;101906.97;5056147;28;19920;-93
2023/10/10 08:48:29;;;;;;;;;;;;;;;18.87;nan;101914.31;5057674;28;19983;-93
2023/10/10 08:50:55;;;;;;;;;;;;;;;18.86;nan;101909.97;5052481;28;20400;-93
2023/10/10 08:53:21;;;;;;;;;;;;;;;18.89;nan;101909.41;5053415;28;20336;-92
2023/10/10 08:55:56;;;;;;;;;;;;;;;18.87;nan;101911.59;5058565;28;19919;-93
2023/10/10 08:58:22;;;;;;;;;;;;;;;18.90;nan;101916.47;5058793;28;19932;-93
2023/10/10 09:00:48;;;;;;;;;;;;;;;18.92;nan;101917.00;5052848;28;20207;-93
2023/10/10 09:03:13;;;;;;;;;;;;;;;18.91;nan;101918.91;5057493;28;19920;-91
2023/10/10 09:05:39;;;;;;;;;;;;;;;18.93;nan;101911.28;5056818;28;19917;-90
2023/10/10 09:08:16;;;;;;;;;;;;;;;18.92;nan;101912.38;5054385;28;19924;-94
2023/10/10 09:10:46;;;;;;;;;;;;;;;18.92;nan;101909.66;5056764;28;20003;-91
2023/10/10 09:13:11;;;;;;;;;;;;;;;18.95;nan;101911.00;5066643;28;19920;-94
2023/10/10 09:15:37;;;;;;;;;;;;;;;18.96;nan;101902.59;5055967;28;19916;-93
2023/10/10 09:18:22;;;;;;;;;;;;;;;19.05;nan;101905.56;5059798;28;19927;-94
2023/10/10 09:20:47;;;;;;;;;;;;;;;19.09;nan;101903.09;5055134;28;19921;-91
2023/10/10 09:23:22;;;;;;;;;;;;;;;19.13;nan;101906.88;5055185;28;20486;-94
2023/10/10 09:25:57;;;;;;;;;;;;;;;19.18;nan;101906.84;5059530;28;19916;-94
2023/10/10 09:28:30;;;;;;;;;;;;;;;19.24;nan;101914.72;5065422;28;19966;-93
2023/10/10 09:30:59;;;;;;;;;;;;;;;19.29;nan;101913.88;5064870;28;20258;-94
2023/10/10 09:33:28;;;;;;;;;;;;;;;19.32;nan;101916.03;5065229;28;19920;-92
2023/10/10 09:36:09;;;;;;;;;;;;;;;19.37;nan;101916.00;5067206;28;19920;-93
2023/10/10 09:38:45;;;;;;;;;;;;;;;19.40;nan;101918.19;5068470;28;19917;-93
2023/10/10 09:41:11;;;;;;;;;;;;;;;19.46;nan;101917.06;5063412;28;19917;-93
2023/10/10 09:43:50;;;;;;;;;;;;;;;19.49;nan;101921.13;5064630;28;19916;-93
2023/10/10 09:46:23;;;;;;;;;;;;;;;19.57;nan;101912.44;5061614;28;19924;-93
2023/10/10 09:54:16;;;;;;;;;;;;;;;19.69;nan;101917.50;5064251;28;19928;-93
2023/10/10 09:56:50;;;;;;;;;;;;;;;19.65;nan;101913.75;5064303;28;19920;-95
2023/10/10 09:59:16;;;;;;;;;;;;;;;19.65;nan;101920.00;5061254;28;19920;-93
2023/10/10 10:01:45;;;;;;;;;;;;;;;19.71;nan;101907.97;5065258;28;19946;-90
2023/10/10 10:04:18;;;;;;;;;;;;;;;19.81;nan;101909.84;5058756;28;19920;-94
2023/10/10 10:06:51;;;;;;;;;;;;;;;19.88;nan;101911.13;5062166;28;19928;-94
2023/10/10 10:09:19;;;;;;;;;;;;;;;19.83;nan;101907.66;5062817;28;19962;-94
2023/10/10 10:11:59;;;;;;;;;;;;;;;19.75;nan;101902.78;5063774;28;19920;-94
2023/10/10 10:14:36;;;;;;;;;;;;;;;19.66;nan;101894.44;5065941;28;19927;-94
2023/10/10 10:17:14;;;;;;;;;;;;;;;19.68;nan;101899.59;5065457;28;19999;-94
2023/10/10 10:19:45;;;;;;;;;;;;;;;19.79;nan;101907.41;5064571;28;20043;-91
2023/10/10 10:22:17;;;;;;;;;;;;;;;19.82;nan;101898.69;5059829;28;19923;-89
2023/10/10 10:24:44;;;;;;;;;;;;;;;19.75;nan;101905.50;5062721;28;19921;-90
2023/10/10 10:27:23;;;;;;;;;;;;;;;19.74;nan;101904.69;5059750;28;19935;-90
2023/10/10 10:29:53;;;;;;;;;;;;;;;19.80;nan;101905.50;5063587;28;19928;-94
2023/10/10 10:32:19;;;;;;;;;;;;;;;19.79;nan;101901.16;5065646;28;19916;-90
2023/10/10 10:34:45;;;;;;;;;;;;;;;19.77;nan;101903.34;5065501;28;19923;-91
2023/10/10 10:37:23;;;;;;;;;;;;;;;19.76;nan;101909.88;5067704;28;20399;-90
2023/10/10 10:42:42;;;;;;;;;;;;;;;19.68;nan;101905.03;5070992;28;20390;-89
2023/10/10 10:45:26;;;;;;;;;;;;;;;19.68;nan;101902.28;5067802;28;20007;-92
2023/10/10 10:47:59;;;;;;;;;;;;;;;19.70;nan;101910.97;5068792;28;20027;-89
2023/10/10 10:50:28;;;;;;;;;;;;;;;19.70;nan;101905.53;5061862;28;19972;-89
2023/10/10 10:52:57;;;;;;;;;;;;;;;19.79;nan;101906.59;5064273;28;19928;-90
2023/10/10 10:55:27;;;;;;;;;;;;;;;19.88;nan;101899.44;5062866;28;19931;-86
2023/10/10 10:58:05;;;;;;;;;;;;;;;19.94;nan;101901.06;5063372;28;19916;-91
2023/10/10 11:03:37;;;;;;;;;;;;;;;20.04;nan;101905.59;5059835;28;19927;-91
2023/10/10 11:06:06;;;;;;;;;;;;;;;20.11;nan;101906.91;5055991;28;19936;-88
2023/10/10 11:13:51;;;;;;;;;;;;;;;20.31;nan;101892.31;5067798;28;19984;-89
2023/10/10 11:16:23;;;;;;;;;;;;;;;20.37;nan;101899.34;5059619;28;19925;-90
2023/10/10 11:18:57;;;;;;;;;;;;;;;20.42;nan;101895.78;5055615;28;20163;-89
2023/10/10 11:21:27;;;;;;;;;;;;;;;20.50;nan;101897.91;5062317;28;20291;-90
2023/10/10 11:23:57;;;;;;;;;;;;;;;20.57;nan;101898.38;5058581;28;19921;-90
2023/10/10 11:26:22;;;;;;;;;;;;;;;20.66;nan;101895.84;5060458;28;20325;-90
2023/10/10 11:28:48;;;;;;;;;;;;;;;20.75;nan;101880.47;5058557;28;20396;-90
2023/10/10 11:31:16;;;;;;;;;;;;;;;20.79;nan;101884.25;5063826;28;19923;-88
2023/10/10 11:34:10;;;;;;;;;;;;;;;20.86;nan;101876.56;5061326;28;20455;-87
2023/10/10 11:36:39;;;;;;;;;;;;;;;20.96;nan;101881.06;5060989;28;19920;-89
2023/10/10 11:39:23;;;;;;;;;;;;;;;21.05;nan;101876.59;5067570;28;19923;-90
2023/10/10 11:41:50;;;;;;;;;;;;;;;21.10;nan;101879.25;5064249;28;19920;-91
2023/10/10 11:44:19;;;;;;;;;;;;;;;21.19;nan;101874.00;5071344;28;19917;-92
2023/10/10 11:46:46;;;;;;;;;;;;;;;21.28;nan;101870.34;5068513;28;20326;-90
2023/10/10 11:49:15;;;;;;;;;;;;;;;21.38;nan;101872.94;5064274;28;20164;-90
2023/10/10 11:51:41;;;;;;;;;;;;;;;21.48;nan;101874.69;5064926;28;20046;-90
2023/10/10 11:54:07;;;;;;;;;;;;;;;21.56;nan;101874.06;5057311;28;19974;-90
2023/10/10 11:56:34;;;;;;;;;;;;;;;21.58;nan;101873.75;5062728;28;20414;-89
2023/10/10 11:59:09;;;;;;;;;;;;;;;21.63;nan;101865.50;5057763;28;20374;-90
2023/10/10 12:01:49;;;;;;;;;;;;;;;21.71;nan;101867.53;5058325;28;19924;-90
2023/10/10 12:04:30;;;;;;;;;;;;;;;21.76;nan;101870.22;5055880;28;19927;-89
2023/10/10 12:06:58;;;;;;;;;;;;;;;21.80;nan;101865.78;5060406;28;19928;-90
2023/10/10 12:09:25;;;;;;;;;;;;;;;21.89;nan;101858.53;5060304;28;20637;-90
2023/10/10 12:11:58;;;;;;;;;;;;;;;21.96;nan;101858.97;5064876;28;20141;-90
2023/10/10 12:14:24;;;;;;;;;;;;;;;22.01;nan;101850.69;5056966;28;19924;-90
2023/10/10 12:16:53;;;;;;;;;;;;;;;22.06;nan;101854.47;5063924;28;20393;-90
2023/10/10 12:19:18;;;;;;;;;;;;;;;22.12;nan;101845.13;5059788;28;19928;-90
2023/10/10 12:21:44;;;;;;;;;;;;;;;22.25;nan;101844.31;5059113;28;19924;-90
2023/10/10 12:24:09;;;;;;;;;;;;;;;22.41;nan;101842.94;5063142;28;19920;-90
2023/10/10 12:26:41;;;;;;;;;;;;;;;22.53;nan;101846.00;5059123;28;20433;-91
2023/10/10 12:29:10;;;;;;;;;;;;;;;22.65;nan;101839.25;5065603;28;20019;-91
2023/10/10 12:31:36;;;;;;;;;;;;;;;22.75;nan;101834.38;5064427;28;19920;-91
2023/10/10 12:34:02;;;;;;;;;;;;;;;22.94;nan;101839.75;5064613;28;19943;-90
2023/10/10 12:36:32;;;;;;;;;;;;;;;23.11;nan;101831.72;5058466;28;19931;-90
2023/10/10 12:38:59;;;;;;;;;;;;;;;23.17;nan;101837.91;5062563;28;19924;-90
2023/10/10 12:41:25;;;;;;;;;;;;;;;23.17;nan;101832.47;5064181;28;20411;-90
2023/10/10 12:43:50;;;;;;;;;;;;;;;23.25;nan;101830.91;5061278;28;19963;-90
2023/10/10 12:46:20;;;;;;;;;;;;;;;23.36;nan;101826.84;5061892;28;20384;-88
2023/10/10 12:48:46;;;;;;;;;;;;;;;23.36;nan;101827.66;5057194;28;19943;-90
2023/10/10 12:51:12;;;;;;;;;;;;;;;23.32;nan;101823.09;5060253;28;20368;-91
2023/10/10 12:53:39;;;;;;;;;;;;;;;23.30;nan;101817.13;5060743;28;19942;-90
2023/10/10 12:56:05;;;;;;;;;;;;;;;23.34;nan;101818.09;5063706;28;19974;-91
2023/10/10 12:58:31;;;;;;;;;;;;;;;23.34;nan;101824.41;5063090;28;20541;-90
2023/10/10 13:00:59;;;;;;;;;;;;;;;23.30;nan;101822.59;5059456;28;20310;-90
2023/10/10 13:03:29;;;;;;;;;;;;;;;23.29;nan;101816.31;5057199;28;19921;-89
2023/10/10 13:05:58;;;;;;;;;;;;;;;23.31;nan;101821.47;5062460;28;19970;-90
2023/10/10 13:08:38;;;;;;;;;;;;;;;23.30;nan;101815.19;5064823;28;19920;-91
2023/10/10 13:11:16;;;;;;;;;;;;;;;23.29;nan;101819.03;5065351;28;19963;-91
2023/10/10 13:13:56;;;;;;;;;;;;;;;23.21;nan;101812.38;5056310;28;19916;-91
2023/10/10 13:16:23;;;;;;;;;;;;;;;23.15;nan;101812.78;5058020;28;19932;-92
2023/10/10 13:18:52;;;;;;;;;;;;;;;23.12;nan;101806.00;5061521;28;20380;-91
2023/10/10 13:21:19;;;;;;;;;;;;;;;23.09;nan;101805.81;5060976;28;20494;-91
2023/10/10 13:23:45;;;;;;;;;;;;;;;23.02;nan;101799.97;5058093;28;19921;-90
2023/10/10 13:26:10;;;;;;;;;;;;;;;23.10;nan;101805.53;5062764;28;20421;-91
2023/10/10 13:28:37;;;;;;;;;;;;;;;23.17;nan;101805.94;5063156;28;19921;-91
2023/10/10 13:31:03;;;;;;;;;;;;;;;23.17;nan;101808.66;5064283;28;19928;-89
2023/10/10 13:33:28;;;;;;;;;;;;;;;23.18;nan;101812.19;5063834;28;20217;-90
2023/10/10 13:35:53;;;;;;;;;;;;;;;23.24;nan;101810.97;5064724;28;19928;-90
2023/10/10 13:38:19;;;;;;;;;;;;;;;23.18;nan;101804.81;5057122;28;19936;-90
2023/10/10 13:40:46;;;;;;;;;;;;;;;23.12;nan;101799.75;5058505;28;20357;-90
2023/10/10 13:43:18;;;;;;;;;;;;;;;23.13;nan;101798.63;5060673;28;19994;-90
2023/10/10 13:45:48;;;;;;;;;;;;;;;23.12;nan;101797.81;5061433;28;19921;-90
2023/10/10 13:48:13;;;;;;;;;;;;;;;23.09;nan;101795.69;5061922;28;19924;-90
2023/10/10 13:50:42;;;;;;;;;;;;;;;23.08;nan;101801.47;5062309;28;19920;-89
2023/10/10 13:53:14;;;;;;;;;;;;;;;23.06;nan;101809.19;5060211;28;19920;-90
2023/10/10 13:55:43;;;;;;;;;;;;;;;23.06;nan;101803.72;5062233;28;19927;-90
2023/10/10 13:58:11;;;;;;;;;;;;;;;23.11;nan;101796.19;5062234;28;19916;-89
2023/10/10 14:00:42;;;;;;;;;;;;;;;23.11;nan;101804.41;5060478;28;20414;-90
2023/10/10 14:03:07;;;;;;;;;;;;;;;23.12;nan;101792.34;5063598;28;19916;-92
2023/10/10 14:05:35;;;;;;;;;;;;;;;23.16;nan;101798.84;5064964;28;19925;-88
2023/10/10 14:08:07;;;;;;;;;;;;;;;23.18;nan;101795.78;5056146;28;19932;-90
2023/10/10 14:10:35;;;;;;;;;;;;;;;23.21;nan;101789.72;5058820;28;19924;-89
2023/10/10 14:13:18;;;;;;;;;;;;;;;23.24;nan;101796.47;5063171;28;19966;-90
2023/10/10 14:15:54;;;;;;;;;;;;;;;23.21;nan;101795.19;5065012;28;19916;-91
2023/10/10 14:18:20;;;;;;;;;;;;;;;23.13;nan;101791.22;5063409;28;19916;-88
2023/10/10 14:20:47;;;;;;;;;;;;;;;23.12;nan;101792.34;5062344;28;19920;-89
2023/10/10 14:23:12;;;;;;;;;;;;;;;23.12;nan;101788.81;5062350;28;19993;-89
2023/10/10 14:25:38;;;;;;;;;;;;;;;23.10;nan;101794.59;5059028;28;20373;-89
2023/10/10 14:28:03;;;;;;;;;;;;;;;23.09;nan;101795.69;5065110;28;19946;-88
2023/10/10 14:30:29;;;;;;;;;;;;;;;23.13;nan;101795.88;5061962;28;20291;-89
2023/10/10 14:32:55;;;;;;;;;;;;;;;23.13;nan;101788.50;5061013;28;19920;-90
2023/10/10 14:35:23;;;;;;;;;;;;;;;23.14;nan;101787.38;5060679;28;19924;-88
2023/10/10 14:37:50;;;;;;;;;;;;;;;23.21;nan;101787.78;5066515;28;19937;-88
2023/10/10 14:40:16;;;;;;;;;;;;;;;23.33;nan;101786.41;5062097;28;20267;-89
2023/10/10 14:42:41;;;;;;;;;;;;;;;23.39;nan;101787.94;5063006;28;19920;-88
2023/10/10 14:45:07;;;;;;;;;;;;;;;23.40;nan;101786.81;5066799;28;19921;-90
2023/10/10 14:47:35;;;;;;;;;;;;;;;23.44;nan;101788.63;5060123;28;21318;-89
2023/10/10 14:50:07;;;;;;;;;;;;;;;23.42;nan;101792.78;5062220;28;20011;-89
2023/10/10 14:52:39;;;;;;;;;;;;;;;23.37;nan;101787.44;5060109;28;19935;-90
2023/10/10 14:55:07;;;;;;;;;;;;;;;23.25;nan;101779.78;5064030;28;19943;-90
2023/10/10 14:57:36;;;;;;;;;;;;;;;23.24;nan;101777.34;5061286;28;20011;-89
2023/10/10 15:00:02;;;;;;;;;;;;;;;23.27;nan;101776.72;5062784;28;20011;-90
2023/10/10 15:02:27;;;;;;;;;;;;;;;23.35;nan;101776.00;5059519;28;19924;-90
2023/10/10 15:04:54;;;;;;;;;;;;;;;23.33;nan;101762.59;5060874;28;19932;-90
2023/10/10 15:07:19;;;;;;;;;;;;;;;23.33;nan;101776.28;5060781;28;20429;-89
2023/10/10 15:09:45;;;;;;;;;;;;;;;23.27;nan;101765.78;5062791;28;19924;-90
2023/10/10 15:12:12;;;;;;;;;;;;;;;23.25;nan;101765.28;5063758;28;19942;-89
2023/10/10 15:14:37;;;;;;;;;;;;;;;23.29;nan;101761.63;5059398;28;19938;-88
2023/10/10 15:17:04;;;;;;;;;;;;;;;23.33;nan;101764.53;5054998;28;19921;-90
2023/10/10 15:19:29;;;;;;;;;;;;;;;23.33;nan;101759.06;5056987;28;19922;-91
2023/10/10 15:21:56;;;;;;;;;;;;;;;23.34;nan;101767.00;5061979;28;19920;-87
2023/10/10 15:24:23;;;;;;;;;;;;;;;23.31;nan;101761.31;5065687;28;20243;-93
2023/10/10 15:26:51;;;;;;;;;;;;;;;23.31;nan;101764.03;5069712;28;19921;-93
2023/10/10 15:29:17;;;;;;;;;;;;;;;23.30;nan;101759.69;5073217;28;20028;-94
2023/10/10 15:31:42;;;;;;;;;;;;;;;23.28;nan;101757.28;5064040;28;19968;-93
2023/10/10 15:34:12;;;;;;;;;;;;;;;23.27;nan;101746.66;5062641;28;19960;-93
2023/10/10 15:36:37;;;;;;;;;;;;;;;23.25;nan;101746.16;5066325;28;19921;-93
2023/10/10 15:39:05;;;;;;;;;;;;;;;23.24;nan;101744.53;5069033;28;20050;-96
2023/10/10 15:41:31;;;;;;;;;;;;;;;23.20;nan;101736.16;5073382;28;19951;-94
2023/10/10 15:44:02;;;;;;;;;;;;;;;23.22;nan;101742.13;5078976;28;19920;-93